Terminal Aerodrome Forecast
Issued by NWS Grand Forks, ND

Home | Current Version | Previous Version | Graphics & Text | Print | Product List | Glossary On
Versions: 1 2 3 4 5 6 7 8 9 10 11 12 13
000
FTUS43 KFGF 021139
TAFGFK
TAF
KGFK 021139Z 0212/0312 34012KT P6SM BKN040
     FM021600 34014G22KT P6SM SCT035 SCT120
     FM030100 31006KT P6SM SKC=

USA.gov is the U.S. government's official web portal to all federal, state and local government web resources and services.